sensor_id;sensor_type;location;lat;lon;timestamp;P1;durP1;ratioP1;P2;durP2;ratioP2
12675;SDS011;63820;65.654;21.944;2023-06-19T00:00:54;7.87;;;5.93;;
12675;SDS011;63820;65.654;21.944;2023-06-19T00:03:39;10.00;;;7.00;;
12675;SDS011;63820;65.654;21.944;2023-06-19T00:06:23;11.83;;;6.67;;
12675;SDS011;63820;65.654;21.944;2023-06-19T00:09:07;11.80;;;6.97;;
12675;SDS011;63820;65.654;21.944;2023-06-19T00:11:51;10.17;;;6.80;;
12675;SDS011;63820;65.654;21.944;2023-06-19T00:14:36;7.67;;;6.37;;
12675;SDS011;63820;65.654;21.944;2023-06-19T00:17:20;9.00;;;6.33;;
12675;SDS011;63820;65.654;21.944;2023-06-19T00:20:05;8.17;;;6.00;;
12675;SDS011;63820;65.654;21.944;2023-06-19T00:22:50;8.87;;;6.33;;
12675;SDS011;63820;65.654;21.944;2023-06-19T00:25:35;8.27;;;6.17;;
12675;SDS011;63820;65.654;21.944;2023-06-19T00:28:19;8.37;;;5.93;;
12675;SDS011;63820;65.654;21.944;2023-06-19T00:31:05;8.73;;;5.90;;
12675;SDS011;63820;65.654;21.944;2023-06-19T00:33:50;8.57;;;5.63;;
12675;SDS011;63820;65.654;21.944;2023-06-19T00:36:34;10.17;;;6.70;;
12675;SDS011;63820;65.654;21.944;2023-06-19T00:39:23;8.93;;;5.97;;
12675;SDS011;63820;65.654;21.944;2023-06-19T00:42:09;11.07;;;6.90;;
12675;SDS011;63820;65.654;21.944;2023-06-19T00:44:53;9.60;;;6.03;;
12675;SDS011;63820;65.654;21.944;2023-06-19T00:47:37;9.40;;;6.63;;
12675;SDS011;63820;65.654;21.944;2023-06-19T00:50:22;9.27;;;6.73;;
12675;SDS011;63820;65.654;21.944;2023-06-19T00:53:06;9.43;;;6.57;;
12675;SDS011;63820;65.654;21.944;2023-06-19T00:55:53;9.97;;;6.27;;
12675;SDS011;63820;65.654;21.944;2023-06-19T00:58:38;10.73;;;6.63;;
12675;SDS011;63820;65.654;21.944;2023-06-19T01:01:22;10.57;;;7.27;;
12675;SDS011;63820;65.654;21.944;2023-06-19T01:04:07;10.30;;;6.70;;
12675;SDS011;63820;65.654;21.944;2023-06-19T01:06:55;8.40;;;6.57;;
12675;SDS011;63820;65.654;21.944;2023-06-19T01:09:50;10.97;;;6.97;;
12675;SDS011;63820;65.654;21.944;2023-06-19T01:12:37;8.30;;;6.53;;
12675;SDS011;63820;65.654;21.944;2023-06-19T01:15:28;8.43;;;6.63;;
12675;SDS011;63820;65.654;21.944;2023-06-19T01:18:13;9.43;;;6.57;;
12675;SDS011;63820;65.654;21.944;2023-06-19T01:21:11;10.37;;;6.63;;
12675;SDS011;63820;65.654;21.944;2023-06-19T01:24:01;9.43;;;6.47;;
12675;SDS011;63820;65.654;21.944;2023-06-19T01:26:46;9.03;;;5.90;;
12675;SDS011;63820;65.654;21.944;2023-06-19T01:29:31;8.43;;;6.43;;
12675;SDS011;63820;65.654;21.944;2023-06-19T01:35:37;9.10;;;6.03;;
12675;SDS011;63820;65.654;21.944;2023-06-19T01:38:24;10.47;;;7.20;;
12675;SDS011;63820;65.654;21.944;2023-06-19T01:41:10;10.50;;;6.50;;
12675;SDS011;63820;65.654;21.944;2023-06-19T01:43:55;8.73;;;6.50;;
12675;SDS011;63820;65.654;21.944;2023-06-19T01:46:41;11.67;;;7.03;;
12675;SDS011;63820;65.654;21.944;2023-06-19T01:49:25;9.47;;;6.87;;
12675;SDS011;63820;65.654;21.944;2023-06-19T01:52:09;9.10;;;6.60;;
12675;SDS011;63820;65.654;21.944;2023-06-19T01:54:53;7.40;;;6.60;;
12675;SDS011;63820;65.654;21.944;2023-06-19T01:57:37;8.97;;;6.47;;
12675;SDS011;63820;65.654;21.944;2023-06-19T02:00:21;8.20;;;6.03;;
12675;SDS011;63820;65.654;21.944;2023-06-19T02:03:06;7.47;;;5.60;;
12675;SDS011;63820;65.654;21.944;2023-06-19T02:05:50;8.30;;;6.07;;
12675;SDS011;63820;65.654;21.944;2023-06-19T02:08:34;8.27;;;5.90;;
12675;SDS011;63820;65.654;21.944;2023-06-19T02:11:18;6.30;;;5.17;;
12675;SDS011;63820;65.654;21.944;2023-06-19T02:14:02;8.50;;;6.03;;
12675;SDS011;63820;65.654;21.944;2023-06-19T02:16:46;7.33;;;5.87;;
12675;SDS011;63820;65.654;21.944;2023-06-19T02:19:30;9.43;;;6.23;;
12675;SDS011;63820;65.654;21.944;2023-06-19T02:22:14;8.03;;;6.00;;
12675;SDS011;63820;65.654;21.944;2023-06-19T02:24:58;10.97;;;6.30;;
12675;SDS011;63820;65.654;21.944;2023-06-19T02:27:42;9.47;;;6.60;;
12675;SDS011;63820;65.654;21.944;2023-06-19T02:30:27;8.80;;;6.37;;
12675;SDS011;63820;65.654;21.944;2023-06-19T02:33:11;7.77;;;5.83;;
12675;SDS011;63820;65.654;21.944;2023-06-19T02:35:57;7.27;;;5.90;;
12675;SDS011;63820;65.654;21.944;2023-06-19T02:38:42;7.67;;;6.07;;
12675;SDS011;63820;65.654;21.944;2023-06-19T02:41:26;7.10;;;6.40;;
12675;SDS011;63820;65.654;21.944;2023-06-19T02:44:11;9.77;;;6.67;;
12675;SDS011;63820;65.654;21.944;2023-06-19T02:46:56;10.97;;;6.70;;
12675;SDS011;63820;65.654;21.944;2023-06-19T02:49:40;9.13;;;6.50;;
12675;SDS011;63820;65.654;21.944;2023-06-19T02:52:24;9.27;;;6.60;;
12675;SDS011;63820;65.654;21.944;2023-06-19T02:55:08;8.87;;;7.00;;
12675;SDS011;63820;65.654;21.944;2023-06-19T02:57:52;10.33;;;6.70;;
12675;SDS011;63820;65.654;21.944;2023-06-19T03:00:37;10.40;;;7.40;;
12675;SDS011;63820;65.654;21.944;2023-06-19T03:03:21;8.77;;;6.83;;
12675;SDS011;63820;65.654;21.944;2023-06-19T03:06:07;10.97;;;6.80;;
12675;SDS011;63820;65.654;21.944;2023-06-19T03:08:51;7.43;;;6.60;;
12675;SDS011;63820;65.654;21.944;2023-06-19T03:11:35;7.67;;;6.63;;
12675;SDS011;63820;65.654;21.944;2023-06-19T03:14:20;9.73;;;6.40;;
12675;SDS011;63820;65.654;21.944;2023-06-19T03:17:04;11.00;;;6.73;;
12675;SDS011;63820;65.654;21.944;2023-06-19T03:19:48;8.57;;;7.00;;
12675;SDS011;63820;65.654;21.944;2023-06-19T03:22:32;9.53;;;6.90;;
12675;SDS011;63820;65.654;21.944;2023-06-19T03:25:16;9.67;;;7.40;;
12675;SDS011;63820;65.654;21.944;2023-06-19T03:28:03;8.90;;;6.50;;
12675;SDS011;63820;65.654;21.944;2023-06-19T03:30:48;8.87;;;6.50;;
12675;SDS011;63820;65.654;21.944;2023-06-19T03:33:32;9.07;;;6.60;;
12675;SDS011;63820;65.654;21.944;2023-06-19T03:36:16;7.53;;;6.33;;
12675;SDS011;63820;65.654;21.944;2023-06-19T03:39:00;9.27;;;6.27;;
12675;SDS011;63820;65.654;21.944;2023-06-19T03:41:44;8.47;;;6.70;;
12675;SDS011;63820;65.654;21.944;2023-06-19T03:44:28;9.70;;;6.60;;
12675;SDS011;63820;65.654;21.944;2023-06-19T03:47:12;8.07;;;6.50;;
12675;SDS011;63820;65.654;21.944;2023-06-19T03:49:56;8.57;;;6.67;;
12675;SDS011;63820;65.654;21.944;2023-06-19T03:52:40;8.50;;;6.83;;
12675;SDS011;63820;65.654;21.944;2023-06-19T03:55:24;8.43;;;6.80;;
12675;SDS011;63820;65.654;21.944;2023-06-19T03:58:08;9.40;;;6.97;;
12675;SDS011;63820;65.654;21.944;2023-06-19T04:00:52;9.47;;;6.87;;
12675;SDS011;63820;65.654;21.944;2023-06-19T04:03:36;7.10;;;6.40;;
12675;SDS011;63820;65.654;21.944;2023-06-19T04:06:20;9.03;;;6.43;;
12675;SDS011;63820;65.654;21.944;2023-06-19T04:09:04;7.70;;;6.77;;
12675;SDS011;63820;65.654;21.944;2023-06-19T04:11:49;9.60;;;6.57;;
12675;SDS011;63820;65.654;21.944;2023-06-19T04:14:33;8.18;;;6.65;;
12675;SDS011;63820;65.654;21.944;2023-06-19T04:17:17;7.47;;;6.60;;
12675;SDS011;63820;65.654;21.944;2023-06-19T04:20:01;7.70;;;6.35;;
12675;SDS011;63820;65.654;21.944;2023-06-19T04:22:54;9.45;;;6.45;;
12675;SDS011;63820;65.654;21.944;2023-06-19T04:25:38;6.70;;;5.90;;
12675;SDS011;63820;65.654;21.944;2023-06-19T04:28:22;8.07;;;6.28;;
12675;SDS011;63820;65.654;21.944;2023-06-19T04:31:06;7.40;;;6.65;;
12675;SDS011;63820;65.654;21.944;2023-06-19T04:33:51;8.38;;;6.53;;
12675;SDS011;63820;65.654;21.944;2023-06-19T04:36:35;6.90;;;6.20;;
12675;SDS011;63820;65.654;21.944;2023-06-19T04:39:19;8.10;;;6.68;;
12675;SDS011;63820;65.654;21.944;2023-06-19T04:42:04;7.97;;;5.97;;
12675;SDS011;63820;65.654;21.944;2023-06-19T04:44:49;8.30;;;6.40;;
12675;SDS011;63820;65.654;21.944;2023-06-19T04:47:33;8.03;;;6.50;;
12675;SDS011;63820;65.654;21.944;2023-06-19T04:50:18;9.53;;;6.67;;
12675;SDS011;63820;65.654;21.944;2023-06-19T04:53:02;7.03;;;5.97;;
12675;SDS011;63820;65.654;21.944;2023-06-19T04:55:46;8.60;;;6.40;;
12675;SDS011;63820;65.654;21.944;2023-06-19T04:58:31;9.97;;;7.07;;
12675;SDS011;63820;65.654;21.944;2023-06-19T05:01:15;7.73;;;6.63;;
12675;SDS011;63820;65.654;21.944;2023-06-19T05:04:00;7.83;;;6.70;;
12675;SDS011;63820;65.654;21.944;2023-06-19T05:06:44;8.13;;;6.80;;
12675;SDS011;63820;65.654;21.944;2023-06-19T05:09:28;8.50;;;6.13;;
12675;SDS011;63820;65.654;21.944;2023-06-19T05:12:12;8.07;;;6.50;;
12675;SDS011;63820;65.654;21.944;2023-06-19T05:14:56;9.23;;;6.43;;
12675;SDS011;63820;65.654;21.944;2023-06-19T05:17:40;8.73;;;6.70;;
12675;SDS011;63820;65.654;21.944;2023-06-19T05:20:24;8.77;;;6.30;;
12675;SDS011;63820;65.654;21.944;2023-06-19T05:23:08;8.80;;;6.40;;
12675;SDS011;63820;65.654;21.944;2023-06-19T05:25:53;7.63;;;6.60;;
12675;SDS011;63820;65.654;21.944;2023-06-19T05:28:37;9.70;;;6.53;;
12675;SDS011;63820;65.654;21.944;2023-06-19T05:31:22;9.37;;;7.10;;
12675;SDS011;63820;65.654;21.944;2023-06-19T05:34:06;7.70;;;6.70;;
12675;SDS011;63820;65.654;21.944;2023-06-19T05:36:50;9.90;;;6.33;;
12675;SDS011;63820;65.654;21.944;2023-06-19T05:39:34;7.80;;;6.70;;
12675;SDS011;63820;65.654;21.944;2023-06-19T05:42:18;7.93;;;6.70;;
12675;SDS011;63820;65.654;21.944;2023-06-19T05:45:02;8.50;;;6.17;;
12675;SDS011;63820;65.654;21.944;2023-06-19T05:47:47;8.47;;;6.43;;
12675;SDS011;63820;65.654;21.944;2023-06-19T05:50:31;8.30;;;6.43;;
12675;SDS011;63820;65.654;21.944;2023-06-19T05:53:15;8.57;;;6.47;;
12675;SDS011;63820;65.654;21.944;2023-06-19T05:55:59;8.47;;;6.40;;
12675;SDS011;63820;65.654;21.944;2023-06-19T05:58:44;6.97;;;6.23;;
12675;SDS011;63820;65.654;21.944;2023-06-19T06:01:31;8.33;;;6.33;;
12675;SDS011;63820;65.654;21.944;2023-06-19T06:04:15;7.90;;;6.57;;
12675;SDS011;63820;65.654;21.944;2023-06-19T06:07:00;7.87;;;6.40;;
12675;SDS011;63820;65.654;21.944;2023-06-19T06:09:44;10.20;;;6.90;;
12675;SDS011;63820;65.654;21.944;2023-06-19T06:12:29;7.70;;;6.40;;
12675;SDS011;63820;65.654;21.944;2023-06-19T06:15:13;7.00;;;6.30;;
12675;SDS011;63820;65.654;21.944;2023-06-19T06:17:58;9.27;;;7.07;;
12675;SDS011;63820;65.654;21.944;2023-06-19T06:20:42;8.07;;;6.43;;
12675;SDS011;63820;65.654;21.944;2023-06-19T06:23:26;8.03;;;6.40;;
12675;SDS011;63820;65.654;21.944;2023-06-19T06:26:10;10.93;;;6.80;;
12675;SDS011;63820;65.654;21.944;2023-06-19T06:28:55;9.10;;;6.90;;
12675;SDS011;63820;65.654;21.944;2023-06-19T06:31:39;9.97;;;7.33;;
12675;SDS011;63820;65.654;21.944;2023-06-19T06:34:24;7.40;;;6.53;;
12675;SDS011;63820;65.654;21.944;2023-06-19T06:37:08;7.67;;;6.83;;
12675;SDS011;63820;65.654;21.944;2023-06-19T06:39:53;9.50;;;7.03;;
12675;SDS011;63820;65.654;21.944;2023-06-19T06:42:37;9.93;;;6.93;;
12675;SDS011;63820;65.654;21.944;2023-06-19T06:45:22;9.17;;;6.90;;
12675;SDS011;63820;65.654;21.944;2023-06-19T06:48:05;12.87;;;6.90;;
12675;SDS011;63820;65.654;21.944;2023-06-19T06:50:50;9.17;;;6.63;;
12675;SDS011;63820;65.654;21.944;2023-06-19T06:53:42;9.53;;;6.57;;
12675;SDS011;63820;65.654;21.944;2023-06-19T06:56:27;9.00;;;7.25;;
12675;SDS011;63820;65.654;21.944;2023-06-19T06:59:11;10.23;;;6.65;;
12675;SDS011;63820;65.654;21.944;2023-06-19T07:01:56;7.05;;;6.07;;
12675;SDS011;63820;65.654;21.944;2023-06-19T07:04:40;9.60;;;6.50;;
12675;SDS011;63820;65.654;21.944;2023-06-19T07:07:24;10.23;;;6.82;;
12675;SDS011;63820;65.654;21.944;2023-06-19T07:10:08;7.32;;;6.28;;
12675;SDS011;63820;65.654;21.944;2023-06-19T07:12:53;8.43;;;7.00;;
12675;SDS011;63820;65.654;21.944;2023-06-19T07:15:37;8.20;;;6.63;;
12675;SDS011;63820;65.654;21.944;2023-06-19T07:18:21;7.15;;;6.45;;
12675;SDS011;63820;65.654;21.944;2023-06-19T07:21:06;7.95;;;6.95;;
12675;SDS011;63820;65.654;21.944;2023-06-19T07:23:55;8.93;;;6.78;;
12675;SDS011;63820;65.654;21.944;2023-06-19T07:26:41;10.27;;;6.97;;
12675;SDS011;63820;65.654;21.944;2023-06-19T07:29:25;9.10;;;6.45;;
12675;SDS011;63820;65.654;21.944;2023-06-19T07:32:11;9.18;;;6.63;;
12675;SDS011;63820;65.654;21.944;2023-06-19T07:34:55;9.50;;;6.72;;
12675;SDS011;63820;65.654;21.944;2023-06-19T07:37:39;8.02;;;7.07;;
12675;SDS011;63820;65.654;21.944;2023-06-19T07:40:23;8.52;;;6.55;;
12675;SDS011;63820;65.654;21.944;2023-06-19T07:43:07;8.75;;;6.57;;
12675;SDS011;63820;65.654;21.944;2023-06-19T07:45:51;7.40;;;6.20;;
12675;SDS011;63820;65.654;21.944;2023-06-19T07:48:35;6.90;;;6.28;;
12675;SDS011;63820;65.654;21.944;2023-06-19T07:51:20;7.35;;;6.47;;
12675;SDS011;63820;65.654;21.944;2023-06-19T07:54:04;8.25;;;6.40;;
12675;SDS011;63820;65.654;21.944;2023-06-19T07:56:48;7.45;;;6.65;;
12675;SDS011;63820;65.654;21.944;2023-06-19T07:59:32;7.95;;;6.65;;
12675;SDS011;63820;65.654;21.944;2023-06-19T08:02:16;7.45;;;6.65;;
12675;SDS011;63820;65.654;21.944;2023-06-19T08:05:01;7.65;;;6.40;;
12675;SDS011;63820;65.654;21.944;2023-06-19T08:07:46;6.72;;;6.10;;
12675;SDS011;63820;65.654;21.944;2023-06-19T08:10:32;6.85;;;6.15;;
12675;SDS011;63820;65.654;21.944;2023-06-19T08:13:16;9.18;;;6.97;;
12675;SDS011;63820;65.654;21.944;2023-06-19T08:16:00;7.35;;;6.60;;
12675;SDS011;63820;65.654;21.944;2023-06-19T08:18:44;7.85;;;6.80;;
12675;SDS011;63820;65.654;21.944;2023-06-19T08:21:29;7.40;;;6.50;;
12675;SDS011;63820;65.654;21.944;2023-06-19T08:24:13;7.22;;;6.50;;
12675;SDS011;63820;65.654;21.944;2023-06-19T08:26:57;7.40;;;6.70;;
12675;SDS011;63820;65.654;21.944;2023-06-19T08:29:41;9.48;;;6.72;;
12675;SDS011;63820;65.654;21.944;2023-06-19T08:32:26;7.13;;;6.43;;
12675;SDS011;63820;65.654;21.944;2023-06-19T08:35:11;8.13;;;6.57;;
12675;SDS011;63820;65.654;21.944;2023-06-19T08:37:55;9.48;;;6.68;;
12675;SDS011;63820;65.654;21.944;2023-06-19T08:40:40;7.10;;;6.40;;
12675;SDS011;63820;65.654;21.944;2023-06-19T08:43:26;8.73;;;6.45;;
12675;SDS011;63820;65.654;21.944;2023-06-19T08:46:11;9.60;;;6.70;;
12675;SDS011;63820;65.654;21.944;2023-06-19T08:48:58;7.72;;;6.20;;
12675;SDS011;63820;65.654;21.944;2023-06-19T08:51:44;9.40;;;6.50;;
12675;SDS011;63820;65.654;21.944;2023-06-19T08:54:28;9.43;;;7.03;;
12675;SDS011;63820;65.654;21.944;2023-06-19T08:57:13;7.90;;;6.50;;
12675;SDS011;63820;65.654;21.944;2023-06-19T08:59:57;7.10;;;6.40;;
12675;SDS011;63820;65.654;21.944;2023-06-19T09:02:41;9.23;;;6.57;;
12675;SDS011;63820;65.654;21.944;2023-06-19T09:05:30;8.32;;;7.22;;
12675;SDS011;63820;65.654;21.944;2023-06-19T09:08:14;7.80;;;7.07;;
12675;SDS011;63820;65.654;21.944;2023-06-19T09:13:45;8.48;;;7.50;;
12675;SDS011;63820;65.654;21.944;2023-06-19T09:16:40;7.53;;;6.53;;
12675;SDS011;63820;65.654;21.944;2023-06-19T09:19:25;5.82;;;5.32;;
12675;SDS011;63820;65.654;21.944;2023-06-19T09:22:09;10.02;;;6.78;;
12675;SDS011;63820;65.654;21.944;2023-06-19T09:24:53;5.95;;;5.45;;
12675;SDS011;63820;65.654;21.944;2023-06-19T09:27:44;6.05;;;5.43;;
12675;SDS011;63820;65.654;21.944;2023-06-19T09:30:28;5.75;;;5.18;;
12675;SDS011;63820;65.654;21.944;2023-06-19T09:33:12;6.95;;;5.72;;
12675;SDS011;63820;65.654;21.944;2023-06-19T09:35:57;5.32;;;4.82;;
12675;SDS011;63820;65.654;21.944;2023-06-19T09:38:43;5.80;;;5.28;;
12675;SDS011;63820;65.654;21.944;2023-06-19T09:41:29;7.03;;;6.00;;
12675;SDS011;63820;65.654;21.944;2023-06-19T09:44:13;6.03;;;5.43;;
12675;SDS011;63820;65.654;21.944;2023-06-19T09:46:59;6.45;;;5.82;;
12675;SDS011;63820;65.654;21.944;2023-06-19T09:49:57;7.47;;;5.35;;
12675;SDS011;63820;65.654;21.944;2023-06-19T09:52:43;5.82;;;5.05;;
12675;SDS011;63820;65.654;21.944;2023-06-19T09:55:28;5.50;;;4.95;;
12675;SDS011;63820;65.654;21.944;2023-06-19T09:58:14;6.40;;;5.80;;
12675;SDS011;63820;65.654;21.944;2023-06-19T10:01:00;5.35;;;4.85;;
12675;SDS011;63820;65.654;21.944;2023-06-19T10:03:48;6.15;;;5.18;;
12675;SDS011;63820;65.654;21.944;2023-06-19T10:06:32;5.78;;;5.18;;
12675;SDS011;63820;65.654;21.944;2023-06-19T10:09:16;7.05;;;4.90;;
12675;SDS011;63820;65.654;21.944;2023-06-19T10:12:11;6.40;;;5.80;;
12675;SDS011;63820;65.654;21.944;2023-06-19T10:14:56;5.90;;;5.30;;
12675;SDS011;63820;65.654;21.944;2023-06-19T10:17:44;6.05;;;5.45;;
12675;SDS011;63820;65.654;21.944;2023-06-19T10:20:34;6.32;;;5.72;;
12675;SDS011;63820;65.654;21.944;2023-06-19T10:23:22;6.57;;;5.95;;
12675;SDS011;63820;65.654;21.944;2023-06-19T10:26:08;6.00;;;5.40;;
12675;SDS011;63820;65.654;21.944;2023-06-19T10:28:59;6.30;;;5.80;;
12675;SDS011;63820;65.654;21.944;2023-06-19T10:31:43;6.70;;;6.00;;
12675;SDS011;63820;65.654;21.944;2023-06-19T10:34:35;6.32;;;5.43;;
12675;SDS011;63820;65.654;21.944;2023-06-19T10:37:31;5.90;;;5.25;;
12675;SDS011;63820;65.654;21.944;2023-06-19T10:40:16;5.95;;;5.45;;
12675;SDS011;63820;65.654;21.944;2023-06-19T10:43:01;6.55;;;5.93;;
12675;SDS011;63820;65.654;21.944;2023-06-19T10:45:45;6.55;;;5.65;;
12675;SDS011;63820;65.654;21.944;2023-06-19T10:48:29;5.90;;;5.30;;
12675;SDS011;63820;65.654;21.944;2023-06-19T10:51:17;7.82;;;6.00;;
12675;SDS011;63820;65.654;21.944;2023-06-19T10:54:03;7.32;;;5.65;;
12675;SDS011;63820;65.654;21.944;2023-06-19T10:56:47;6.70;;;6.00;;
12675;SDS011;63820;65.654;21.944;2023-06-19T10:59:33;6.95;;;6.25;;
12675;SDS011;63820;65.654;21.944;2023-06-19T11:02:18;6.78;;;5.80;;
12675;SDS011;63820;65.654;21.944;2023-06-19T11:05:02;6.18;;;5.38;;
12675;SDS011;63820;65.654;21.944;2023-06-19T11:07:50;7.85;;;6.10;;
12675;SDS011;63820;65.654;21.944;2023-06-19T11:10:38;9.15;;;6.10;;
12675;SDS011;63820;65.654;21.944;2023-06-19T11:13:22;6.95;;;5.93;;
12675;SDS011;63820;65.654;21.944;2023-06-19T11:16:06;10.40;;;6.22;;
12675;SDS011;63820;65.654;21.944;2023-06-19T11:18:55;8.32;;;6.35;;
12675;SDS011;63820;65.654;21.944;2023-06-19T11:21:44;11.57;;;7.82;;
12675;SDS011;63820;65.654;21.944;2023-06-19T11:24:32;9.00;;;7.10;;
12675;SDS011;63820;65.654;21.944;2023-06-19T11:27:17;9.55;;;7.30;;
12675;SDS011;63820;65.654;21.944;2023-06-19T11:30:08;7.75;;;6.95;;
12675;SDS011;63820;65.654;21.944;2023-06-19T11:32:53;10.00;;;7.35;;
12675;SDS011;63820;65.654;21.944;2023-06-19T11:35:37;7.95;;;7.15;;
12675;SDS011;63820;65.654;21.944;2023-06-19T11:38:26;12.15;;;7.70;;
12675;SDS011;63820;65.654;21.944;2023-06-19T11:41:11;11.80;;;8.13;;
12675;SDS011;63820;65.654;21.944;2023-06-19T11:43:58;11.38;;;8.13;;
12675;SDS011;63820;65.654;21.944;2023-06-19T11:46:57;11.27;;;8.50;;
12675;SDS011;63820;65.654;21.944;2023-06-19T11:49:49;11.48;;;8.57;;
12675;SDS011;63820;65.654;21.944;2023-06-19T11:52:34;12.75;;;8.85;;
12675;SDS011;63820;65.654;21.944;2023-06-19T11:55:18;13.57;;;8.98;;
12675;SDS011;63820;65.654;21.944;2023-06-19T11:58:03;11.95;;;8.48;;
12675;SDS011;63820;65.654;21.944;2023-06-19T12:00:47;13.85;;;9.05;;
12675;SDS011;63820;65.654;21.944;2023-06-19T12:03:32;12.13;;;8.32;;
12675;SDS011;63820;65.654;21.944;2023-06-19T12:06:17;12.52;;;7.88;;
12675;SDS011;63820;65.654;21.944;2023-06-19T12:09:04;16.63;;;8.57;;
12675;SDS011;63820;65.654;21.944;2023-06-19T12:11:49;14.98;;;8.10;;
12675;SDS011;63820;65.654;21.944;2023-06-19T12:14:33;15.20;;;9.15;;
12675;SDS011;63820;65.654;21.944;2023-06-19T12:17:17;13.38;;;9.65;;
12675;SDS011;63820;65.654;21.944;2023-06-19T12:20:01;20.30;;;9.93;;
12675;SDS011;63820;65.654;21.944;2023-06-19T12:22:49;14.82;;;9.73;;
12675;SDS011;63820;65.654;21.944;2023-06-19T12:25:33;19.15;;;9.07;;
12675;SDS011;63820;65.654;21.944;2023-06-19T12:28:17;11.70;;;8.90;;
12675;SDS011;63820;65.654;21.944;2023-06-19T12:31:02;12.43;;;8.15;;
12675;SDS011;63820;65.654;21.944;2023-06-19T12:33:47;13.82;;;9.00;;
12675;SDS011;63820;65.654;21.944;2023-06-19T12:36:32;12.75;;;8.68;;
12675;SDS011;63820;65.654;21.944;2023-06-19T12:39:16;13.35;;;9.18;;
12675;SDS011;63820;65.654;21.944;2023-06-19T12:42:00;12.68;;;8.85;;
12675;SDS011;63820;65.654;21.944;2023-06-19T12:44:44;14.32;;;8.07;;
12675;SDS011;63820;65.654;21.944;2023-06-19T12:47:29;10.75;;;8.07;;
12675;SDS011;63820;65.654;21.944;2023-06-19T12:50:13;13.63;;;8.20;;
12675;SDS011;63820;65.654;21.944;2023-06-19T12:52:57;8.88;;;7.47;;
12675;SDS011;63820;65.654;21.944;2023-06-19T12:55:41;10.68;;;7.65;;
12675;SDS011;63820;65.654;21.944;2023-06-19T12:58:27;14.82;;;10.07;;
12675;SDS011;63820;65.654;21.944;2023-06-19T13:01:11;12.65;;;9.10;;
12675;SDS011;63820;65.654;21.944;2023-06-19T13:03:55;15.07;;;8.88;;
12675;SDS011;63820;65.654;21.944;2023-06-19T13:06:39;12.32;;;8.82;;
12675;SDS011;63820;65.654;21.944;2023-06-19T13:09:23;14.35;;;9.10;;
12675;SDS011;63820;65.654;21.944;2023-06-19T13:12:08;16.85;;;9.40;;
12675;SDS011;63820;65.654;21.944;2023-06-19T13:14:52;14.45;;;10.07;;
12675;SDS011;63820;65.654;21.944;2023-06-19T13:17:36;13.07;;;9.73;;
12675;SDS011;63820;65.654;21.944;2023-06-19T13:20:21;14.25;;;9.20;;
12675;SDS011;63820;65.654;21.944;2023-06-19T13:23:05;14.07;;;8.68;;
12675;SDS011;63820;65.654;21.944;2023-06-19T13:25:50;10.73;;;8.63;;
12675;SDS011;63820;65.654;21.944;2023-06-19T13:28:34;11.90;;;8.35;;
12675;SDS011;63820;65.654;21.944;2023-06-19T13:31:19;11.75;;;8.20;;
12675;SDS011;63820;65.654;21.944;2023-06-19T13:34:03;11.02;;;8.75;;
12675;SDS011;63820;65.654;21.944;2023-06-19T13:36:48;13.77;;;8.45;;
12675;SDS011;63820;65.654;21.944;2023-06-19T13:39:32;13.50;;;8.18;;
12675;SDS011;63820;65.654;21.944;2023-06-19T13:42:16;9.73;;;8.18;;
12675;SDS011;63820;65.654;21.944;2023-06-19T13:45:00;9.10;;;7.97;;
12675;SDS011;63820;65.654;21.944;2023-06-19T13:47:44;12.13;;;8.15;;
12675;SDS011;63820;65.654;21.944;2023-06-19T13:50:28;9.55;;;7.93;;
12675;SDS011;63820;65.654;21.944;2023-06-19T13:53:12;10.02;;;7.38;;
12675;SDS011;63820;65.654;21.944;2023-06-19T13:55:56;11.48;;;8.27;;
12675;SDS011;63820;65.654;21.944;2023-06-19T13:58:40;12.05;;;8.23;;
12675;SDS011;63820;65.654;21.944;2023-06-19T14:01:25;11.13;;;8.15;;
12675;SDS011;63820;65.654;21.944;2023-06-19T14:04:09;10.55;;;7.93;;
12675;SDS011;63820;65.654;21.944;2023-06-19T14:06:54;12.18;;;8.50;;
12675;SDS011;63820;65.654;21.944;2023-06-19T14:09:39;9.82;;;8.13;;
12675;SDS011;63820;65.654;21.944;2023-06-19T14:12:23;12.80;;;8.30;;
12675;SDS011;63820;65.654;21.944;2023-06-19T14:15:07;11.25;;;8.32;;
12675;SDS011;63820;65.654;21.944;2023-06-19T14:17:52;10.38;;;7.80;;
12675;SDS011;63820;65.654;21.944;2023-06-19T14:20:36;10.73;;;8.05;;
12675;SDS011;63820;65.654;21.944;2023-06-19T14:23:20;12.77;;;8.57;;
12675;SDS011;63820;65.654;21.944;2023-06-19T14:26:05;12.25;;;7.60;;
12675;SDS011;63820;65.654;21.944;2023-06-19T14:28:49;13.73;;;8.45;;
12675;SDS011;63820;65.654;21.944;2023-06-19T14:31:35;13.13;;;9.77;;
12675;SDS011;63820;65.654;21.944;2023-06-19T14:34:19;17.35;;;10.27;;
12675;SDS011;63820;65.654;21.944;2023-06-19T14:37:04;19.00;;;10.30;;
12675;SDS011;63820;65.654;21.944;2023-06-19T14:39:48;17.55;;;10.48;;
12675;SDS011;63820;65.654;21.944;2023-06-19T14:42:32;14.10;;;10.43;;
12675;SDS011;63820;65.654;21.944;2023-06-19T14:45:16;14.43;;;9.40;;
12675;SDS011;63820;65.654;21.944;2023-06-19T14:48:00;16.80;;;9.10;;
12675;SDS011;63820;65.654;21.944;2023-06-19T14:50:44;14.25;;;8.98;;
12675;SDS011;63820;65.654;21.944;2023-06-19T14:53:28;14.30;;;8.70;;
12675;SDS011;63820;65.654;21.944;2023-06-19T14:56:12;11.77;;;8.20;;
12675;SDS011;63820;65.654;21.944;2023-06-19T14:58:56;11.07;;;8.43;;
12675;SDS011;63820;65.654;21.944;2023-06-19T15:01:40;11.93;;;8.57;;
12675;SDS011;63820;65.654;21.944;2023-06-19T15:04:24;13.73;;;8.70;;
12675;SDS011;63820;65.654;21.944;2023-06-19T15:07:08;13.40;;;8.40;;
12675;SDS011;63820;65.654;21.944;2023-06-19T15:09:52;11.15;;;8.43;;
12675;SDS011;63820;65.654;21.944;2023-06-19T15:12:36;14.55;;;9.25;;
12675;SDS011;63820;65.654;21.944;2023-06-19T15:15:21;15.02;;;9.77;;
12675;SDS011;63820;65.654;21.944;2023-06-19T15:18:05;17.52;;;9.80;;
12675;SDS011;63820;65.654;21.944;2023-06-19T15:20:50;15.40;;;10.63;;
12675;SDS011;63820;65.654;21.944;2023-06-19T15:23:34;14.02;;;9.85;;
12675;SDS011;63820;65.654;21.944;2023-06-19T15:26:18;13.65;;;9.23;;
12675;SDS011;63820;65.654;21.944;2023-06-19T15:29:02;13.82;;;9.80;;
12675;SDS011;63820;65.654;21.944;2023-06-19T15:31:47;14.30;;;9.98;;
12675;SDS011;63820;65.654;21.944;2023-06-19T15:34:31;13.88;;;10.00;;
12675;SDS011;63820;65.654;21.944;2023-06-19T15:37:15;13.38;;;9.45;;
12675;SDS011;63820;65.654;21.944;2023-06-19T15:39:59;12.15;;;9.68;;
12675;SDS011;63820;65.654;21.944;2023-06-19T15:42:45;13.27;;;10.88;;
12675;SDS011;63820;65.654;21.944;2023-06-19T15:45:29;16.27;;;9.98;;
12675;SDS011;63820;65.654;21.944;2023-06-19T15:48:13;15.90;;;10.85;;
12675;SDS011;63820;65.654;21.944;2023-06-19T15:50:57;14.38;;;10.57;;
12675;SDS011;63820;65.654;21.944;2023-06-19T15:53:41;12.38;;;9.40;;
12675;SDS011;63820;65.654;21.944;2023-06-19T15:56:25;16.00;;;10.18;;
12675;SDS011;63820;65.654;21.944;2023-06-19T15:59:11;14.02;;;10.80;;
12675;SDS011;63820;65.654;21.944;2023-06-19T16:01:55;15.55;;;11.05;;
12675;SDS011;63820;65.654;21.944;2023-06-19T16:04:39;14.25;;;10.82;;
12675;SDS011;63820;65.654;21.944;2023-06-19T16:07:24;15.18;;;10.73;;
12675;SDS011;63820;65.654;21.944;2023-06-19T16:10:08;16.58;;;11.65;;
12675;SDS011;63820;65.654;21.944;2023-06-19T16:12:52;14.40;;;10.73;;
12675;SDS011;63820;65.654;21.944;2023-06-19T16:15:36;17.25;;;11.05;;
12675;SDS011;63820;65.654;21.944;2023-06-19T16:18:20;17.20;;;10.95;;